Time;durP1;ratioP1;P1;durP2;ratioP2;P2;SDS_P1;SDS_P2;PMS_P1;PMS_P2;Temp;Humidity;BMP_temperature;BMP_pressure;BME280_temperature;BME280_humidity;BME280_pressure;Samples;Min_cycle;Max_cycle;Signal;HPM_P1;HPM_P2
2021/04/21 00:02:21;;;;;;;58.35;39.30;;;9.40;73.20;;;;;;5032095;28;20402;-79
2021/04/21 00:04:49;;;;;;;58.97;38.53;;;9.30;74.50;;;;;;5015869;28;20478;-80
2021/04/21 00:07:24;;;;;;;55.90;37.10;;;9.30;75.10;;;;;;5015536;28;20386;-80
2021/04/21 00:09:53;;;;;;;59.03;39.28;;;9.20;76.60;;;;;;5027335;28;20410;-82
2021/04/21 00:12:22;;;;;;;55.00;36.80;;;9.60;72.50;;;;;;5000381;28;20382;-83
2021/04/21 00:14:51;;;;;;;56.08;38.42;;;9.80;70.10;;;;;;4995150;28;20421;-83
2021/04/21 00:17:20;;;;;;;58.67;38.38;;;9.80;70.40;;;;;;5011656;28;20391;-81
2021/04/21 00:19:46;;;;;;;59.87;38.67;;;9.70;69.60;;;;;;5012874;28;20374;-80
2021/04/21 00:22:16;;;;;;;55.70;38.80;;;9.40;72.30;;;;;;5012381;28;20450;-80
2021/04/21 00:24:44;;;;;;;55.35;38.70;;;9.20;73.90;;;;;;5012597;28;20425;-81
2021/04/21 00:27:10;;;;;;;57.30;39.50;;;9.10;75.80;;;;;;5012322;28;20401;-80
2021/04/21 00:29:46;;;;;;;58.40;40.22;;;9.00;77.70;;;;;;5014197;28;20414;-80
2021/04/21 00:32:14;;;;;;;57.55;40.00;;;9.00;79.80;;;;;;5013709;28;20385;-82
2021/04/21 00:34:41;;;;;;;59.58;38.80;;;9.10;80.40;;;;;;4997812;28;20868;-84
2021/04/21 00:37:09;;;;;;;62.08;40.17;;;9.20;78.70;;;;;;5000302;28;20391;-83
2021/04/21 00:39:36;;;;;;;53.85;37.97;;;9.40;75.30;;;;;;4999412;28;20402;-83
2021/04/21 00:42:11;;;;;;;58.13;38.80;;;9.10;77.40;;;;;;5010876;28;20401;-80
2021/04/21 00:44:52;;;;;;;63.63;39.70;;;8.90;79.20;;;;;;5035377;28;20419;-81
2021/04/21 00:47:24;;;;;;;56.07;38.67;;;8.80;81.40;;;;;;5005061;28;20395;-84
2021/04/21 00:50:01;;;;;;;58.30;39.90;;;8.70;81.90;;;;;;5014205;28;20393;-81
2021/04/21 00:52:45;;;;;;;64.03;40.75;;;8.60;82.60;;;;;;5016470;28;20383;-82
2021/04/21 00:55:35;;;;;;;57.63;38.88;;;8.60;83.30;;;;;;5014686;28;20397;-82
2021/04/21 00:58:30;;;;;;;56.53;38.33;;;8.70;83.50;;;;;;4998417;28;20406;-81
2021/04/21 01:00:56;;;;;;;58.63;38.45;;;8.60;83.80;;;;;;5006394;28;20401;-84
2021/04/21 01:03:24;;;;;;;61.43;38.73;;;8.70;84.50;;;;;;5023410;28;20408;-83
2021/04/21 01:05:57;;;;;;;58.92;37.85;;;8.60;84.20;;;;;;5002336;28;20415;-83
2021/04/21 01:08:27;;;;;;;65.35;39.95;;;8.50;84.90;;;;;;5001209;28;20383;-81
2021/04/21 01:11:24;;;;;;;60.03;38.78;;;8.50;85.10;;;;;;5001367;28;20406;-81
2021/04/21 01:13:54;;;;;;;61.70;38.20;;;8.50;85.60;;;;;;4999740;28;20429;-81
2021/04/21 01:16:30;;;;;;;57.53;38.63;;;8.40;86.10;;;;;;5001053;28;20891;-84
2021/04/21 01:18:58;;;;;;;57.47;38.75;;;8.30;86.40;;;;;;5001769;28;20767;-81
2021/04/21 01:21:33;;;;;;;57.70;39.03;;;8.30;87.30;;;;;;5001800;28;20390;-80
2021/04/21 01:24:19;;;;;;;58.38;38.10;;;8.30;88.00;;;;;;5012464;28;20442;-80
2021/04/21 01:27:08;;;;;;;62.88;40.90;;;8.40;87.90;;;;;;5008065;28;20405;-80
2021/04/21 01:29:38;;;;;;;55.88;38.92;;;8.40;87.00;;;;;;5015745;28;20393;-80
2021/04/21 01:32:16;;;;;;;53.28;37.38;;;8.90;81.00;;;;;;5019222;28;20393;-80
2021/04/21 01:34:43;;;;;;;58.08;36.95;;;9.10;77.40;;;;;;4997757;28;20435;-80
2021/04/21 01:37:17;;;;;;;58.77;37.23;;;9.30;72.80;;;;;;4994607;28;20408;-80
2021/04/21 01:39:48;;;;;;;58.30;38.20;;;9.40;72.00;;;;;;5000507;28;20456;-82
2021/04/21 01:42:17;;;;;;;61.10;39.10;;;9.30;73.50;;;;;;4986547;28;20447;-82
2021/04/21 01:44:45;;;;;;;56.70;38.20;;;8.90;75.20;;;;;;4985978;28;20412;-84
2021/04/21 01:47:16;;;;;;;58.22;38.55;;;8.60;79.40;;;;;;4983813;28;20419;-84
2021/04/21 01:49:58;;;;;;;63.60;41.17;;;8.40;83.20;;;;;;4984394;28;20399;-81
2021/04/21 01:52:41;;;;;;;69.15;41.83;;;8.20;86.10;;;;;;4985544;28;20872;-83
2021/04/21 01:55:32;;;;;;;62.13;41.00;;;8.10;87.60;;;;;;4984308;28;20882;-83
2021/04/21 01:58:31;;;;;;;61.13;40.75;;;8.10;88.80;;;;;;5009045;28;20420;-79
2021/04/21 02:01:20;;;;;;;65.60;41.22;;;8.00;89.80;;;;;;4997455;28;20396;-80
2021/04/21 02:03:50;;;;;;;63.72;40.65;;;7.90;90.90;;;;;;5003376;28;20380;-79
2021/04/21 02:06:27;;;;;;;64.60;40.10;;;8.00;91.30;;;;;;4997671;28;20526;-80
2021/04/21 02:09:04;;;;;;;62.97;41.95;;;7.90;92.10;;;;;;4998097;28;20404;-78
2021/04/21 02:11:33;;;;;;;66.10;39.67;;;7.90;93.30;;;;;;4997623;28;20385;-81
2021/04/21 02:14:13;;;;;;;61.95;38.90;;;8.30;89.10;;;;;;5012490;28;20410;-83
2021/04/21 02:17:13;;;;;;;58.80;36.95;;;8.60;84.10;;;;;;5009739;28;20386;-82
2021/04/21 02:19:54;;;;;;;60.72;38.30;;;8.30;83.80;;;;;;4986032;28;20384;-84
2021/04/21 02:22:52;;;;;;;59.03;38.28;;;8.20;85.90;;;;;;4999598;28;20389;-81
2021/04/21 02:25:20;;;;;;;59.53;38.72;;;8.00;88.50;;;;;;4988672;28;20426;-83
2021/04/21 02:28:11;;;;;;;61.03;39.65;;;8.00;89.00;;;;;;5014251;28;20383;-82
2021/04/21 02:31:05;;;;;;;61.78;38.67;;;7.90;90.00;;;;;;5014834;28;20419;-81
2021/04/21 02:33:46;;;;;;;60.03;40.10;;;7.80;90.50;;;;;;5017213;28;20422;-78
2021/04/21 02:36:29;;;;;;;62.45;39.35;;;7.80;92.20;;;;;;5016687;28;20446;-80
2021/04/21 02:39:02;;;;;;;60.20;39.05;;;7.90;90.80;;;;;;5009870;28;20417;-81
2021/04/21 02:41:41;;;;;;;69.43;42.10;;;7.70;92.20;;;;;;5010383;28;20508;-81
2021/04/21 02:44:37;;;;;;;67.43;42.60;;;7.80;93.50;;;;;;5014736;28;20407;-80
2021/04/21 02:47:11;;;;;;;71.18;43.15;;;7.70;93.60;;;;;;5016552;28;20405;-80
2021/04/21 02:50:05;;;;;;;67.40;42.35;;;7.60;94.20;;;;;;5017853;28;20398;-81
2021/04/21 02:52:41;;;;;;;68.63;41.40;;;7.70;95.60;;;;;;5014809;28;20466;-84
2021/04/21 02:55:29;;;;;;;70.63;43.03;;;7.70;93.40;;;;;;5001817;28;20418;-84
2021/04/21 02:58:18;;;;;;;73.25;44.22;;;7.50;93.70;;;;;;5015926;28;20403;-77
2021/04/21 03:01:06;;;;;;;71.15;43.63;;;7.50;95.10;;;;;;5016440;28;20514;-78
2021/04/21 03:03:50;;;;;;;67.28;43.40;;;7.50;95.60;;;;;;5000984;28;20371;-80
2021/04/21 03:06:29;;;;;;;67.53;42.05;;;7.50;96.00;;;;;;5001397;28;20402;-78
2021/04/21 03:09:07;;;;;;;69.45;42.72;;;7.40;96.70;;;;;;4999847;28;20458;-79
2021/04/21 03:11:32;;;;;;;68.82;43.05;;;7.40;96.60;;;;;;4999530;28;20398;-78
2021/04/21 03:14:08;;;;;;;65.88;42.47;;;7.40;97.70;;;;;;5001017;28;20426;-79
2021/04/21 03:16:41;;;;;;;76.97;45.30;;;7.40;98.10;;;;;;4999271;28;20403;-78
2021/04/21 03:19:10;;;;;;;69.85;42.90;;;7.40;97.90;;;;;;4981202;28;20462;-79
2021/04/21 03:21:40;;;;;;;68.75;42.10;;;7.40;98.50;;;;;;4982836;28;20393;-80
2021/04/21 03:24:15;;;;;;;79.87;46.83;;;7.50;98.80;;;;;;4992358;28;20401;-79
2021/04/21 03:26:45;;;;;;;69.93;42.80;;;7.60;97.90;;;;;;4996245;28;20427;-76
2021/04/21 03:29:17;;;;;;;74.65;44.03;;;7.60;97.10;;;;;;5016182;28;20442;-78
2021/04/21 03:31:46;;;;;;;70.38;44.25;;;7.70;97.10;;;;;;5012806;28;20426;-79
2021/04/21 03:34:14;;;;;;;76.68;45.83;;;7.70;96.80;;;;;;5001917;28;20405;-79
2021/04/21 03:36:42;;;;;;;67.50;42.95;;;7.90;95.60;;;;;;5000744;28;20404;-78
2021/04/21 03:39:10;;;;;;;69.40;44.67;;;7.90;93.90;;;;;;4999184;28;20387;-78
2021/04/21 03:41:36;;;;;;;74.00;44.00;;;7.90;94.00;;;;;;5000426;28;20406;-78
2021/04/21 03:44:03;;;;;;;65.95;42.17;;;7.90;92.90;;;;;;4998511;28;20414;-79
2021/04/21 03:46:29;;;;;;;69.60;42.70;;;7.90;93.00;;;;;;4999130;28;20387;-80
2021/04/21 03:48:56;;;;;;;68.30;41.90;;;7.90;92.90;;;;;;5000344;28;20387;-79
2021/04/21 03:51:23;;;;;;;68.60;41.75;;;7.90;92.30;;;;;;4999222;28;20402;-79
2021/04/21 03:53:52;;;;;;;67.88;42.53;;;7.80;93.20;;;;;;5002425;28;20379;-77
2021/04/21 03:56:21;;;;;;;66.57;43.88;;;7.80;93.60;;;;;;5007379;28;20394;-77
2021/04/21 03:58:48;;;;;;;68.00;43.63;;;7.80;93.70;;;;;;5030875;22;20519;-75
2021/04/21 04:01:16;;;;;;;67.95;43.85;;;7.70;94.10;;;;;;5050981;28;20435;-74
2021/04/21 04:03:49;;;;;;;69.45;42.40;;;7.70;94.30;;;;;;5050986;28;20456;-75
2021/04/21 04:06:19;;;;;;;68.53;42.35;;;7.80;94.40;;;;;;5051068;28;20387;-75
2021/04/21 04:09:02;;;;;;;73.20;44.45;;;7.70;94.20;;;;;;5044293;28;20743;-73
2021/04/21 04:11:32;;;;;;;73.10;42.33;;;7.70;95.10;;;;;;5031058;28;20379;-75
2021/04/21 04:14:19;;;;;;;67.55;41.33;;;7.70;96.00;;;;;;5030499;28;20868;-75
2021/04/21 04:16:46;;;;;;;65.70;42.30;;;7.70;95.50;;;;;;5030650;28;20421;-75
2021/04/21 04:19:12;;;;;;;73.95;45.13;;;7.70;95.90;;;;;;5032574;28;20482;-75
2021/04/21 04:21:40;;;;;;;70.13;43.72;;;7.60;96.10;;;;;;5036253;28;20387;-73
2021/04/21 04:24:10;;;;;;;70.90;43.85;;;7.60;96.40;;;;;;5036153;28;20478;-75
2021/04/21 04:26:40;;;;;;;75.50;46.00;;;7.70;96.20;;;;;;5035852;28;20382;-73
2021/04/21 04:29:05;;;;;;;72.00;46.65;;;7.60;96.00;;;;;;5013057;28;20461;-74
2021/04/21 04:31:35;;;;;;;75.85;46.92;;;7.60;97.10;;;;;;5015041;28;20408;-75
2021/04/21 04:34:03;;;;;;;76.30;46.15;;;7.70;97.20;;;;;;5034168;28;20380;-75
2021/04/21 04:36:34;;;;;;;73.18;43.05;;;7.80;96.60;;;;;;5042605;28;20488;-75
2021/04/21 04:39:02;;;;;;;72.90;44.58;;;7.80;95.60;;;;;;5035938;28;20503;-75
2021/04/21 04:41:28;;;;;;;69.82;44.47;;;7.90;94.00;;;;;;5031200;28;20469;-75
2021/04/21 04:43:56;;;;;;;68.35;43.75;;;7.90;93.80;;;;;;5031134;28;20544;-75
2021/04/21 04:46:27;;;;;;;69.20;44.67;;;8.00;94.30;;;;;;5030711;28;20376;-75
2021/04/21 04:49:01;;;;;;;67.50;44.73;;;8.10;92.90;;;;;;5029131;28;20450;-75
2021/04/21 04:51:32;;;;;;;71.60;43.42;;;8.20;92.10;;;;;;5030842;28;20376;-75
2021/04/21 04:54:01;;;;;;;64.38;42.67;;;8.20;91.80;;;;;;5030305;28;20430;-75
2021/04/21 04:56:27;;;;;;;68.72;44.33;;;8.30;91.20;;;;;;5031395;28;20387;-75
2021/04/21 04:58:56;;;;;;;186.60;117.80;;;8.40;89.70;;;;;;5031885;28;20856;-75
2021/04/21 05:01:22;;;;;;;213.17;137.43;;;8.50;91.20;;;;;;5031426;28;20387;-75
2021/04/21 05:03:51;;;;;;;102.63;63.58;;;9.00;90.30;;;;;;5032360;28;20378;-75
2021/04/21 05:06:22;;;;;;;99.65;61.70;;;9.30;82.90;;;;;;5037635;28;20809;-76
2021/04/21 05:08:52;;;;;;;85.32;52.67;;;9.50;81.70;;;;;;5036690;28;20382;-74
2021/04/21 05:11:21;;;;;;;83.35;52.25;;;9.80;78.10;;;;;;5043236;28;20403;-75
2021/04/21 05:13:49;;;;;;;81.00;52.67;;;9.80;73.40;;;;;;5043508;28;20387;-75
2021/04/21 05:16:55;;;;;;;84.47;51.78;;;9.90;75.00;;;;;;5043147;28;20447;-75
2021/04/21 05:19:43;;;;;;;81.95;52.33;;;10.20;70.70;;;;;;5017849;28;20431;-73
2021/04/21 05:22:48;;;;;;;65.45;43.03;;;10.30;70.00;;;;;;5021320;28;20472;-73
2021/04/21 05:25:37;;;;;;;75.93;48.85;;;10.20;66.90;;;;;;5013230;28;20405;-74
2021/04/21 05:28:50;;;;;;;78.25;47.47;;;10.20;68.00;;;;;;5028605;28;20387;-76
2021/04/21 05:31:53;;;;;;;74.30;44.30;;;10.20;67.30;;;;;;5036943;28;20471;-75
2021/04/21 05:34:37;;;;;;;73.70;46.75;;;10.20;66.60;;;;;;5036512;28;20558;-75
2021/04/21 05:37:33;;;;;;;81.57;52.10;;;10.30;67.40;;;;;;5034021;28;20918;-76
2021/04/21 05:40:22;;;;;;;77.20;45.15;;;10.30;66.40;;;;;;5035739;28;20391;-79
2021/04/21 05:43:13;;;;;;;64.65;42.60;;;10.40;64.30;;;;;;5031724;28;20406;-75
2021/04/21 05:46:01;;;;;;;70.63;43.40;;;10.30;63.40;;;;;;5033967;28;20430;-75
2021/04/21 05:49:01;;;;;;;67.78;41.00;;;10.40;62.70;;;;;;5033752;28;20508;-75
2021/04/21 05:51:53;;;;;;;100.53;58.83;;;10.50;61.80;;;;;;5034073;28;20463;-75
2021/04/21 05:54:31;;;;;;;102.35;63.20;;;10.40;63.00;;;;;;5033576;28;20851;-75
2021/04/21 05:57:41;;;;;;;69.90;45.88;;;10.60;62.10;;;;;;5033376;28;20395;-75
2021/04/21 06:00:06;;;;;;;67.43;43.95;;;10.60;60.60;;;;;;5031841;28;20419;-73
2021/04/21 06:02:35;;;;;;;79.60;50.03;;;10.70;59.70;;;;;;5033507;28;20466;-73
2021/04/21 06:05:18;;;;;;;58.78;38.42;;;10.80;60.50;;;;;;5032951;28;20430;-73
2021/04/21 06:07:44;;;;;;;71.10;42.03;;;10.90;58.50;;;;;;5033030;28;20382;-74
2021/04/21 06:10:27;;;;;;;61.50;39.38;;;11.00;58.10;;;;;;5033299;28;20740;-74
2021/04/21 06:13:02;;;;;;;69.70;43.80;;;11.00;56.50;;;;;;5033111;28;20486;-74
2021/04/21 06:15:31;;;;;;;60.20;38.10;;;11.20;56.00;;;;;;5031792;28;20468;-73
2021/04/21 06:17:59;;;;;;;61.03;38.92;;;11.40;53.20;;;;;;5033380;28;20430;-76
2021/04/21 06:20:44;;;;;;;64.03;40.60;;;11.50;52.30;;;;;;5031727;28;20807;-74
2021/04/21 06:23:18;;;;;;;63.20;39.90;;;11.50;51.60;;;;;;5030573;28;20747;-71
2021/04/21 06:25:46;;;;;;;57.72;39.50;;;11.80;51.90;;;;;;5032618;28;20407;-72
2021/04/21 06:28:22;;;;;;;63.05;40.40;;;11.90;49.50;;;;;;5032394;28;20391;-73
2021/04/21 06:31:03;;;;;;;72.45;44.85;;;11.90;49.00;;;;;;5031098;28;20387;-73
2021/04/21 06:33:38;;;;;;;110.03;69.80;;;12.00;49.80;;;;;;5032962;28;20406;-74
2021/04/21 06:36:06;;;;;;;67.30;44.70;;;12.30;48.70;;;;;;5032752;28;20391;-73
2021/04/21 06:38:33;;;;;;;66.97;43.38;;;12.50;45.70;;;;;;5030082;28;20398;-73
2021/04/21 06:40:59;;;;;;;78.07;47.28;;;12.60;45.50;;;;;;5032587;28;20397;-74
2021/04/21 06:43:27;;;;;;;75.80;48.47;;;12.70;45.50;;;;;;5031304;28;20395;-74
2021/04/21 06:45:54;;;;;;;82.45;46.70;;;12.80;45.70;;;;;;5032542;28;20431;-73
2021/04/21 06:48:35;;;;;;;66.43;44.00;;;12.60;44.70;;;;;;5032135;28;20868;-73
2021/04/21 06:51:14;;;;;;;67.78;44.75;;;12.60;44.80;;;;;;5032780;28;20390;-74
2021/04/21 06:53:42;;;;;;;78.35;46.00;;;12.50;45.00;;;;;;5031858;28;20387;-73
2021/04/21 06:56:08;;;;;;;73.65;45.03;;;12.60;45.90;;;;;;5032725;28;20390;-74
2021/04/21 06:58:35;;;;;;;71.60;44.08;;;12.70;45.90;;;;;;5031939;28;20390;-72
2021/04/21 07:01:27;;;;;;;96.75;63.90;;;12.90;43.90;;;;;;5032359;28;20375;-73
2021/04/21 07:04:11;;;;;;;69.25;44.70;;;13.10;43.40;;;;;;5031478;28;20395;-72
2021/04/21 07:06:38;;;;;;;73.57;44.28;;;13.30;40.10;;;;;;5031581;28;20402;-72
2021/04/21 07:09:20;;;;;;;71.30;45.08;;;13.40;39.70;;;;;;5031676;28;20462;-73
2021/04/21 07:11:55;;;;;;;70.50;44.92;;;13.40;40.40;;;;;;5032125;28;20386;-72
2021/04/21 07:14:21;;;;;;;75.57;48.67;;;13.40;39.40;;;;;;5030425;28;20453;-72
2021/04/21 07:16:52;;;;;;;78.20;48.17;;;13.50;40.20;;;;;;5031655;28;20774;-72
2021/04/21 07:19:20;;;;;;;73.38;45.78;;;13.40;40.50;;;;;;5030487;28;20410;-72
2021/04/21 07:21:45;;;;;;;72.45;46.97;;;13.50;40.20;;;;;;5031853;28;20431;-73
2021/04/21 07:24:14;;;;;;;68.43;46.15;;;13.40;40.60;;;;;;5031444;28;20834;-71
2021/04/21 07:26:42;;;;;;;87.50;58.28;;;13.60;40.60;;;;;;5031620;28;20379;-73
2021/04/21 07:29:09;;;;;;;73.43;47.47;;;14.00;39.00;;;;;;5011322;28;20385;-73
2021/04/21 07:31:39;;;;;;;68.25;43.50;;;14.20;37.40;;;;;;5011968;28;20384;-72
2021/04/21 07:34:10;;;;;;;72.32;44.95;;;14.50;36.10;;;;;;5025162;28;20387;-72
2021/04/21 07:36:48;;;;;;;68.50;45.72;;;14.80;34.70;;;;;;5030849;28;20395;-73
2021/04/21 07:39:15;;;;;;;73.45;46.58;;;14.80;34.90;;;;;;5031386;28;20437;-73
2021/04/21 07:41:48;;;;;;;69.95;46.70;;;15.00;33.90;;;;;;5029607;28;20899;-72
2021/04/21 07:44:36;;;;;;;72.97;47.17;;;15.00;34.00;;;;;;5031058;28;20411;-71
2021/04/21 07:47:07;;;;;;;76.70;47.78;;;15.40;32.50;;;;;;5031505;28;21036;-74
2021/04/21 07:49:34;;;;;;;73.25;46.03;;;15.70;31.50;;;;;;5031035;28;20405;-73
2021/04/21 07:52:01;;;;;;;74.28;48.67;;;15.90;29.70;;;;;;5031907;28;20843;-77
2021/04/21 07:54:28;;;;;;;71.45;48.67;;;15.90;29.50;;;;;;5031482;28;20886;-77
2021/04/21 07:56:55;;;;;;;89.50;50.88;;;16.00;29.50;;;;;;5031550;28;20425;-77
2021/04/21 07:59:22;;;;;;;82.10;48.97;;;16.00;29.40;;;;;;5029609;28;21155;-77
2021/04/21 08:01:49;;;;;;;80.82;54.15;;;16.30;27.10;;;;;;5027520;28;20407;-76
2021/04/21 08:04:21;;;;;;;79.60;54.27;;;16.30;27.20;;;;;;5023943;28;20939;-76
2021/04/21 08:06:49;;;;;;;77.68;52.25;;;16.00;28.00;;;;;;5030687;28;20433;-76
2021/04/21 08:09:16;;;;;;;92.93;55.60;;;16.20;27.00;;;;;;5030853;28;20437;-75
2021/04/21 08:11:43;;;;;;;81.15;54.10;;;16.20;26.20;;;;;;5029453;28;20391;-76
2021/04/21 08:14:09;;;;;;;81.60;53.55;;;16.10;26.60;;;;;;5030185;28;20395;-75
2021/04/21 08:16:37;;;;;;;79.40;53.67;;;16.20;25.90;;;;;;5031990;28;20398;-76
2021/04/21 08:19:18;;;;;;;77.60;52.90;;;16.10;26.70;;;;;;5030552;28;20410;-77
2021/04/21 08:21:48;;;;;;;90.32;55.28;;;15.90;27.00;;;;;;5030311;28;20403;-78
2021/04/21 08:24:18;;;;;;;96.78;56.78;;;15.60;29.00;;;;;;5030159;28;20407;-77
2021/04/21 08:26:52;;;;;;;81.82;55.00;;;15.40;29.30;;;;;;5030890;28;20694;-77
2021/04/21 08:29:18;;;;;;;93.88;56.53;;;15.30;30.40;;;;;;5031785;28;20393;-77
2021/04/21 08:31:52;;;;;;;86.77;56.23;;;15.00;30.70;;;;;;5032346;28;20582;-77
2021/04/21 08:34:19;;;;;;;83.53;55.55;;;14.90;31.30;;;;;;5019495;28;20395;-77
2021/04/21 08:36:45;;;;;;;86.68;55.10;;;14.70;32.50;;;;;;5034181;28;20403;-76
2021/04/21 08:39:12;;;;;;;84.40;52.67;;;14.70;32.50;;;;;;5028277;28;20414;-75
2021/04/21 08:41:40;;;;;;;84.80;50.03;;;14.80;30.60;;;;;;5010095;28;20384;-77
2021/04/21 08:44:06;;;;;;;88.50;52.92;;;14.60;30.10;;;;;;5013334;28;20388;-77
2021/04/21 08:46:32;;;;;;;80.68;50.55;;;14.30;31.70;;;;;;5029993;28;20391;-77
2021/04/21 08:49:00;;;;;;;78.60;47.67;;;14.30;31.50;;;;;;5030503;28;20398;-76
2021/04/21 08:51:27;;;;;;;83.55;51.08;;;14.30;31.20;;;;;;5010918;28;20749;-76
2021/04/21 08:53:57;;;;;;;80.82;47.45;;;14.20;30.30;;;;;;5010801;28;20399;-76
2021/04/21 08:56:24;;;;;;;71.63;44.13;;;14.30;30.70;;;;;;5030010;28;20497;-76
2021/04/21 08:58:51;;;;;;;70.18;43.47;;;14.40;27.80;;;;;;5030092;28;20438;-76
2021/04/21 09:01:18;;;;;;;72.35;44.15;;;14.60;25.80;;;;;;5031164;28;20386;-77
2021/04/21 09:03:46;;;;;;;80.80;46.92;;;14.60;25.70;;;;;;5032490;28;20752;-75
2021/04/21 09:06:15;;;;;;;76.32;43.60;;;14.60;28.10;;;;;;5014892;28;20393;-76
2021/04/21 09:08:41;;;;;;;72.88;47.92;;;14.50;27.10;;;;;;5027057;28;20395;-79
2021/04/21 09:11:07;;;;;;;82.47;50.55;;;14.30;29.60;;;;;;5024569;28;20380;-77
2021/04/21 09:13:33;;;;;;;85.97;50.40;;;14.30;30.60;;;;;;5036576;28;20514;-78
2021/04/21 09:15:59;;;;;;;77.63;47.07;;;14.50;29.00;;;;;;5040338;28;20383;-76
2021/04/21 09:18:32;;;;;;;81.73;50.90;;;14.70;27.40;;;;;;5043394;28;20556;-77
2021/04/21 09:20:59;;;;;;;80.18;49.33;;;14.70;28.80;;;;;;5039940;28;20386;-77
2021/04/21 09:23:38;;;;;;;77.13;47.17;;;14.80;28.90;;;;;;5035312;28;20407;-73
2021/04/21 09:26:16;;;;;;;74.03;45.70;;;14.90;27.90;;;;;;5035060;28;20518;-73
2021/04/21 09:28:44;;;;;;;75.93;45.70;;;14.90;27.30;;;;;;5017702;28;20702;-76
2021/04/21 09:31:18;;;;;;;73.00;44.25;;;15.00;26.20;;;;;;5014316;28;20400;-75
2021/04/21 09:33:44;;;;;;;76.22;46.05;;;15.00;27.50;;;;;;5032845;28;20422;-74
2021/04/21 09:36:10;;;;;;;68.68;45.35;;;15.10;26.60;;;;;;5034549;28;20464;-75
2021/04/21 09:38:36;;;;;;;73.05;43.83;;;15.20;25.60;;;;;;5017246;28;20396;-74
2021/04/21 09:41:18;;;;;;;71.18;45.38;;;15.10;26.90;;;;;;5014529;28;20420;-75
2021/04/21 09:43:44;;;;;;;71.40;43.70;;;15.10;27.30;;;;;;5030249;28;20456;-75
2021/04/21 09:46:18;;;;;;;68.63;44.65;;;15.20;27.40;;;;;;5031867;28;20399;-76
2021/04/21 09:48:46;;;;;;;75.90;45.88;;;15.30;26.70;;;;;;5033614;28;20402;-77
2021/04/21 09:51:17;;;;;;;67.80;44.20;;;15.60;26.20;;;;;;5028866;28;20420;-75
2021/04/21 09:53:47;;;;;;;69.95;46.15;;;15.60;25.50;;;;;;5012597;28;20393;-76
2021/04/21 09:56:24;;;;;;;71.55;44.05;;;15.70;26.40;;;;;;5017782;28;20395;-76
2021/04/21 09:58:52;;;;;;;70.75;42.63;;;15.80;25.10;;;;;;5050433;23;21591;-78
2021/04/21 10:01:34;;;;;;;64.13;42.40;;;15.80;23.70;;;;;;5051881;28;20395;-80
2021/04/21 10:04:10;;;;;;;62.90;39.88;;;16.00;24.20;;;;;;5049703;28;20871;-81
2021/04/21 10:06:39;;;;;;;58.50;36.33;;;16.20;21.50;;;;;;5050934;28;20380;-79
2021/04/21 10:09:20;;;;;;;53.05;34.08;;;16.40;21.20;;;;;;5056285;28;20414;-78
2021/04/21 10:11:46;;;;;;;52.03;34.35;;;16.30;18.60;;;;;;5046120;28;20393;-80
2021/04/21 10:14:11;;;;;;;52.80;34.50;;;16.30;18.60;;;;;;5045306;28;20410;-79
2021/04/21 10:16:37;;;;;;;50.93;30.63;;;16.50;17.70;;;;;;5045618;28;20387;-78
2021/04/21 10:19:04;;;;;;;47.15;30.67;;;16.70;17.80;;;;;;5044994;28;20397;-77
2021/04/21 10:21:30;;;;;;;50.97;28.33;;;16.70;17.60;;;;;;5029009;28;20420;-78
2021/04/21 10:23:56;;;;;;;39.33;25.97;;;16.70;16.40;;;;;;5040727;28;20496;-77
2021/04/21 10:26:22;;;;;;;42.05;27.30;;;16.80;15.60;;;;;;5044261;28;20406;-78
2021/04/21 10:28:48;;;;;;;41.00;25.55;;;16.80;15.70;;;;;;5044991;28;20383;-81
2021/04/21 10:31:15;;;;;;;44.83;26.00;;;16.70;15.30;;;;;;5047029;28;20486;-78
2021/04/21 10:33:42;;;;;;;40.58;24.90;;;16.80;15.30;;;;;;5045450;28;20405;-79
2021/04/21 10:36:08;;;;;;;43.20;22.23;;;17.00;14.20;;;;;;5053556;28;20465;-79
2021/04/21 10:38:36;;;;;;;44.13;24.92;;;16.90;13.30;;;;;;5053254;28;20383;-82
2021/04/21 10:41:20;;;;;;;38.55;24.50;;;17.20;13.40;;;;;;5051544;28;20394;-81
2021/04/21 10:43:47;;;;;;;33.92;23.10;;;17.70;11.30;;;;;;5047999;28;20438;-80
2021/04/21 10:46:13;;;;;;;35.67;22.02;;;17.50;11.20;;;;;;5048876;28;20442;-80
2021/04/21 10:48:41;;;;;;;34.72;20.52;;;17.40;10.50;;;;;;5035878;28;20868;-82
2021/04/21 10:51:32;;;;;;;32.97;20.58;;;17.50;10.00;;;;;;5045683;28;20402;-82
2021/04/21 10:54:08;;;;;;;28.27;16.85;;;17.30;9.10;;;;;;5047955;28;20406;-79
2021/04/21 10:56:36;;;;;;;26.73;17.38;;;17.20;7.60;;;;;;5048365;28;20459;-82
2021/04/21 10:59:03;;;;;;;31.02;15.90;;;17.30;8.10;;;;;;5048176;28;20413;-81
2021/04/21 11:01:38;;;;;;;25.77;16.50;;;17.40;7.20;;;;;;5052765;28;20383;-78
2021/04/21 11:04:05;;;;;;;28.63;17.05;;;17.50;6.90;;;;;;5054044;28;20406;-83
2021/04/21 11:06:45;;;;;;;21.08;14.27;;;17.60;7.10;;;;;;5053164;28;20398;-80
2021/04/21 11:09:12;;;;;;;20.00;13.20;;;17.60;5.10;;;;;;5052723;28;20399;-80
2021/04/21 11:11:42;;;;;;;17.15;11.93;;;17.70;3.20;;;;;;5053512;28;20387;-81
2021/04/21 11:14:10;;;;;;;18.67;11.20;;;17.60;2.90;;;;;;5054098;28;20386;-81
2021/04/21 11:16:38;;;;;;;16.40;11.23;;;17.60;2.50;;;;;;5048625;28;20459;-81
2021/04/21 11:19:23;;;;;;;15.82;11.10;;;17.60;3.80;;;;;;5050922;28;20438;-82
2021/04/21 11:22:28;;;;;;;18.13;12.80;;;17.50;3.60;;;;;;5049519;28;20407;-82
2021/04/21 11:25:20;;;;;;;18.25;12.77;;;17.60;5.20;;;;;;5051939;28;20430;-81
2021/04/21 11:27:46;;;;;;;21.15;14.50;;;17.50;6.10;;;;;;5047828;28;20498;-82
2021/04/21 11:30:36;;;;;;;23.25;14.70;;;17.80;6.50;;;;;;5042869;28;20501;-78
2021/04/21 11:33:03;;;;;;;24.77;14.25;;;18.00;5.80;;;;;;5045543;28;20383;-81
2021/04/21 11:35:33;;;;;;;22.65;15.30;;;18.30;4.30;;;;;;5045474;28;20386;-82
2021/04/21 11:37:59;;;;;;;27.97;14.83;;;17.90;4.50;;;;;;5045783;28;20391;-81
2021/04/21 11:40:29;;;;;;;19.27;10.95;;;17.80;4.80;;;;;;5044320;28;20407;-81
2021/04/21 11:43:17;;;;;;;21.83;13.57;;;17.60;3.50;;;;;;5040552;28;20390;-80
2021/04/21 11:45:43;;;;;;;21.70;15.10;;;17.70;5.10;;;;;;5023395;28;20413;-83
2021/04/21 11:48:09;;;;;;;26.48;14.95;;;18.10;5.80;;;;;;5022496;28;20389;-77
2021/04/21 11:50:37;;;;;;;25.63;15.15;;;18.30;6.90;;;;;;5042559;28;20433;-80
2021/04/21 11:53:12;;;;;;;21.05;14.52;;;18.30;6.60;;;;;;5042056;28;20395;-80
2021/04/21 11:56:02;;;;;;;27.00;15.00;;;18.10;5.10;;;;;;5044960;28;20449;-79
2021/04/21 11:58:40;;;;;;;26.15;16.00;;;18.20;4.90;;;;;;5045316;28;20395;-78
2021/04/21 12:01:11;;;;;;;18.35;11.45;;;18.60;4.20;;;;;;5044315;28;20386;-80
2021/04/21 12:03:42;;;;;;;18.55;12.52;;;18.50;3.70;;;;;;5044229;28;20386;-81
2021/04/21 12:06:12;;;;;;;23.55;14.13;;;18.40;2.70;;;;;;5043149;28;20407;-79
2021/04/21 12:08:49;;;;;;;22.90;14.70;;;18.30;3.10;;;;;;5045963;28;20379;-80
2021/04/21 12:11:23;;;;;;;26.25;15.75;;;18.30;4.20;;;;;;5049918;28;20375;-80
2021/04/21 12:13:49;;;;;;;28.05;16.20;;;18.60;3.70;;;;;;5046002;28;20395;-79
2021/04/21 12:16:20;;;;;;;25.30;15.25;;;18.50;4.40;;;;;;5046269;28;20438;-82
2021/04/21 12:18:54;;;;;;;24.02;15.80;;;18.30;4.80;;;;;;5048844;28;20399;-78
2021/04/21 12:21:19;;;;;;;22.70;15.70;;;18.20;5.10;;;;;;5047735;28;20529;-78
2021/04/21 12:24:05;;;;;;;26.43;17.10;;;18.10;6.10;;;;;;5048591;28;20393;-78
2021/04/21 12:26:42;;;;;;;24.90;15.82;;;18.10;5.50;;;;;;5044385;28;20384;-77
2021/04/21 12:29:19;;;;;;;26.35;15.63;;;17.90;5.60;;;;;;5014349;28;20445;-78
2021/04/21 12:31:46;;;;;;;22.25;15.68;;;17.90;6.00;;;;;;5031258;28;20434;-76
2021/04/21 12:34:14;;;;;;;26.13;14.65;;;17.80;5.50;;;;;;5031332;28;20749;-76
2021/04/21 12:36:41;;;;;;;23.35;15.77;;;17.60;5.80;;;;;;5039274;28;20458;-75
2021/04/21 12:39:11;;;;;;;25.48;15.80;;;17.70;5.40;;;;;;5042586;28;20390;-77
2021/04/21 12:41:38;;;;;;;24.00;14.50;;;17.80;4.80;;;;;;5042661;28;20393;-76
2021/04/21 12:44:13;;;;;;;21.60;14.97;;;17.80;5.20;;;;;;5044646;28;20473;-75
2021/04/21 12:46:40;;;;;;;27.73;15.45;;;18.10;5.60;;;;;;5047082;28;20383;-76
2021/04/21 12:49:06;;;;;;;22.95;16.10;;;18.20;5.10;;;;;;5044634;28;20378;-74
2021/04/21 12:51:32;;;;;;;26.50;15.98;;;18.10;5.70;;;;;;5048078;28;20390;-73
2021/04/21 12:54:00;;;;;;;24.08;16.95;;;18.10;6.00;;;;;;5042719;28;20391;-75
2021/04/21 12:56:40;;;;;;;29.80;17.65;;;18.10;6.20;;;;;;5048180;28;20394;-76
2021/04/21 12:59:16;;;;;;;29.85;18.77;;;17.90;5.80;;;;;;5046695;28;20395;-74
2021/04/21 13:01:42;;;;;;;25.45;16.60;;;18.10;6.60;;;;;;5039133;28;20386;-74
2021/04/21 13:04:11;;;;;;;30.20;17.98;;;18.10;7.70;;;;;;5037000;28;20744;-75
2021/04/21 13:06:50;;;;;;;22.60;17.05;;;18.40;7.50;;;;;;5037339;28;20394;-76